Burlington, Colorado
Current Conditions -  °F | °C
As of 3:53 PM on Friday 28 Nov 2014 (Local Time) from KITR Reporting Station
Clear Clear  
Wind Chill: 63°   Ceiling: Unl
Heat Index: 63°   Visibility: 10mi
Dew Point: 17°   Wind: 6mph
Humidity: 17%   Direction: 60°ENE
Pressure: 29.8"   Gusts: NA
Location:  39.31°N, 102.27°W
Report Text: KITR 282253Z AUTO 06005KT 10SM CLR 17/M08 A2980 RMK AO2 SLP072 T01721083 $
Loading
Personal Weather Stations






























Interactive Weather Map New forecast layout! Learn more

10-Day Weather Forecast

Advertisements
Track Severe Weather on mobile